Time;durP1;ratioP1;P1;durP2;ratioP2;P2;SDS_P1;SDS_P2;PMS_P1;PMS_P2;Temp;Humidity;BMP_temperature;BMP_pressure;BME280_temperature;BME280_humidity;BME280_pressure;Samples;Min_cycle;Max_cycle;Signal;HPM_P1;HPM_P2
2022/01/20 00:00:12;;;;;;;9.23;3.20;;;6.00;99.90;;;;;;5088478;28;20208;-62
2022/01/20 00:02:38;;;;;;;15.77;3.90;;;5.90;99.90;;;;;;5082230;28;20189;-60
2022/01/20 00:05:15;;;;;;;14.30;2.83;;;5.70;99.90;;;;;;5094338;28;20185;-63
2022/01/20 00:08:07;;;;;;;12.00;2.97;;;5.70;99.90;;;;;;5066364;28;20621;-60
2022/01/20 00:27:04;;;;;;;8.30;2.40;;;5.50;99.90;;;;;;5056112;28;20323;-61
2022/01/20 00:29:33;;;;;;;8.40;2.90;;;5.40;99.90;;;;;;5075162;28;20196;-60
2022/01/20 00:34:52;;;;;;;8.33;3.07;;;5.30;99.90;;;;;;5093932;28;20196;-61
2022/01/20 00:37:16;;;;;;;12.63;3.67;;;5.30;99.90;;;;;;5093296;28;20192;-61
2022/01/20 00:39:43;;;;;;;13.80;2.60;;;5.30;99.90;;;;;;5084562;28;20664;-61
2022/01/20 00:42:08;;;;;;;12.97;4.07;;;5.30;99.90;;;;;;5094021;28;20617;-60
2022/01/20 00:44:34;;;;;;;6.53;2.77;;;5.20;99.90;;;;;;5075824;28;20660;-61
2022/01/20 00:47:01;;;;;;;23.37;3.73;;;5.20;99.90;;;;;;5074705;28;20178;-62
2022/01/20 00:49:27;;;;;;;9.33;3.73;;;5.20;99.90;;;;;;5073727;28;20264;-61
2022/01/20 00:51:52;;;;;;;13.67;2.80;;;5.10;99.90;;;;;;5077693;28;20647;-61
2022/01/20 00:54:19;;;;;;;10.83;2.97;;;5.30;99.90;;;;;;5066157;28;20259;-61
2022/01/20 00:56:45;;;;;;;9.87;2.93;;;5.30;99.90;;;;;;5085302;28;20193;-60
2022/01/20 00:59:10;;;;;;;14.07;2.50;;;5.30;99.90;;;;;;5087644;28;20541;-61
2022/01/20 01:01:36;;;;;;;11.00;3.67;;;5.30;99.90;;;;;;5084669;28;20192;-61
2022/01/20 01:04:02;;;;;;;11.07;2.30;;;5.30;99.90;;;;;;5058489;28;20218;-61
2022/01/20 01:09:12;;;;;;;9.80;2.57;;;5.30;99.90;;;;;;5082565;28;20280;-61
2022/01/20 01:11:39;;;;;;;11.00;3.13;;;5.10;99.90;;;;;;5086710;28;20676;-61
2022/01/20 01:14:08;;;;;;;7.03;2.30;;;5.10;99.90;;;;;;5080400;28;20283;-61
2022/01/20 01:19:49;;;;;;;14.20;2.70;;;5.10;99.90;;;;;;5085290;28;20181;-61
2022/01/20 01:22:21;;;;;;;5.93;2.77;;;5.20;99.90;;;;;;5073804;28;20196;-61
2022/01/20 01:24:52;;;;;;;16.67;2.80;;;5.20;99.90;;;;;;5087136;28;20641;-60
2022/01/20 01:27:20;;;;;;;9.97;3.07;;;5.20;99.90;;;;;;5092595;28;20532;-60
2022/01/20 01:32:18;;;;;;;9.83;3.17;;;5.60;99.90;;;;;;5086935;28;20224;-61
2022/01/20 01:34:49;;;;;;;7.67;2.80;;;5.70;99.90;;;;;;5078824;28;20182;-61
2022/01/20 01:37:36;;;;;;;11.67;3.43;;;5.70;99.90;;;;;;5056728;28;20189;-61
2022/01/20 01:40:04;;;;;;;9.60;2.70;;;5.60;99.90;;;;;;5069745;28;20204;-61
2022/01/20 01:42:43;;;;;;;9.13;3.37;;;5.70;99.90;;;;;;5058709;28;20626;-61
2022/01/20 01:45:10;;;;;;;8.23;4.97;;;5.70;99.90;;;;;;5091863;28;20196;-61
2022/01/20 01:47:36;;;;;;;14.87;3.33;;;5.70;99.90;;;;;;5092528;28;20184;-60
2022/01/20 01:50:02;;;;;;;19.03;4.43;;;5.80;99.90;;;;;;5072267;28;20230;-61
2022/01/20 01:52:28;;;;;;;8.83;3.77;;;5.80;99.90;;;;;;5080646;28;20573;-61
2022/01/20 01:54:54;;;;;;;12.53;3.33;;;5.80;99.90;;;;;;5073983;28;20189;-60
2022/01/20 01:57:19;;;;;;;10.37;3.67;;;5.80;99.90;;;;;;5073468;28;20181;-61
2022/01/20 01:59:45;;;;;;;10.10;3.17;;;5.90;99.90;;;;;;5074298;28;20189;-60
2022/01/20 02:02:11;;;;;;;10.07;3.77;;;5.90;99.90;;;;;;5074701;28;20184;-61
2022/01/20 02:04:37;;;;;;;10.93;3.97;;;5.90;99.90;;;;;;5046595;28;20218;-61
2022/01/20 02:20:12;;;;;;;8.47;4.73;;;6.00;99.90;;;;;;5077581;28;20665;-61
2022/01/20 02:22:38;;;;;;;14.97;4.20;;;6.00;99.90;;;;;;5074945;28;20211;-61
2022/01/20 02:25:04;;;;;;;11.33;4.20;;;6.00;99.90;;;;;;5073989;28;20193;-61
2022/01/20 02:27:29;;;;;;;7.67;3.33;;;6.00;99.90;;;;;;5064533;28;20569;-61
2022/01/20 02:29:55;;;;;;;10.27;3.73;;;6.00;99.90;;;;;;5067824;28;20193;-61
2022/01/20 02:32:21;;;;;;;16.07;4.23;;;6.00;99.90;;;;;;5092449;28;20207;-60
2022/01/20 02:34:46;;;;;;;12.20;3.87;;;6.00;99.90;;;;;;5092082;28;20192;-61
2022/01/20 02:37:15;;;;;;;8.40;3.77;;;6.00;99.90;;;;;;5057634;28;20195;-61
2022/01/20 02:44:53;;;;;;;9.20;4.10;;;5.90;99.90;;;;;;5094774;28;20203;-61
2022/01/20 02:47:25;;;;;;;9.20;4.13;;;5.90;99.90;;;;;;5059015;28;20192;-64
2022/01/20 02:49:51;;;;;;;7.30;3.10;;;5.70;99.90;;;;;;5076817;28;20188;-60
2022/01/20 02:52:17;;;;;;;10.07;3.83;;;5.70;99.90;;;;;;5070704;28;20220;-60
2022/01/20 02:54:43;;;;;;;5.30;2.87;;;5.70;99.90;;;;;;5095769;28;20603;-60
2022/01/20 02:57:10;;;;;;;11.33;3.43;;;5.70;99.90;;;;;;5096102;28;20188;-61
2022/01/20 02:59:36;;;;;;;11.13;3.47;;;5.60;99.90;;;;;;5084322;28;20189;-60
2022/01/20 03:02:03;;;;;;;17.50;4.00;;;5.60;99.90;;;;;;5075216;28;20193;-60
2022/01/20 03:04:30;;;;;;;16.50;3.47;;;5.60;99.90;;;;;;5069558;28;20241;-60
2022/01/20 03:06:57;;;;;;;3.37;2.33;;;5.50;99.90;;;;;;5076215;28;20185;-60
2022/01/20 03:09:23;;;;;;;6.03;2.67;;;5.60;99.90;;;;;;5082811;28;20550;-60
2022/01/20 03:11:49;;;;;;;9.03;3.00;;;5.60;99.90;;;;;;5092836;28;20227;-60
2022/01/20 03:14:17;;;;;;;9.97;3.20;;;5.70;99.90;;;;;;5077639;28;20540;-60
2022/01/20 03:16:44;;;;;;;8.53;2.60;;;5.90;99.90;;;;;;5083020;28;20177;-60
2022/01/20 03:19:11;;;;;;;7.23;2.60;;;6.00;99.90;;;;;;5086321;28;20641;-60
2022/01/20 03:21:37;;;;;;;9.63;3.70;;;5.90;99.90;;;;;;5093950;28;20196;-60
2022/01/20 03:24:07;;;;;;;5.63;3.40;;;5.80;99.90;;;;;;5095640;28;20276;-61
2022/01/20 03:26:34;;;;;;;8.23;3.17;;;5.60;99.90;;;;;;5094994;28;20188;-62
2022/01/20 03:28:59;;;;;;;6.93;5.20;;;5.60;99.90;;;;;;5066129;28;20189;-61
2022/01/20 03:31:26;;;;;;;6.93;3.63;;;5.70;99.90;;;;;;5076928;28;20209;-61
2022/01/20 03:33:52;;;;;;;10.03;4.30;;;5.60;99.90;;;;;;5076864;28;20180;-61
2022/01/20 03:36:18;;;;;;;9.00;4.83;;;5.70;99.90;;;;;;5095762;28;20184;-61
2022/01/20 03:38:44;;;;;;;13.97;7.90;;;5.60;99.90;;;;;;5094936;28;20279;-61
2022/01/20 03:41:10;;;;;;;6.70;3.83;;;5.70;99.90;;;;;;5076914;28;20217;-61
2022/01/20 03:43:35;;;;;;;5.90;4.50;;;5.80;99.90;;;;;;5070641;28;20270;-61
2022/01/20 03:46:06;;;;;;;4.67;3.20;;;5.80;99.90;;;;;;5093817;28;20631;-61
2022/01/20 03:48:37;;;;;;;5.83;3.00;;;5.70;99.90;;;;;;5075439;28;20177;-61
2022/01/20 03:51:03;;;;;;;3.73;3.00;;;5.70;99.90;;;;;;5080302;28;20217;-61
2022/01/20 03:53:31;;;;;;;4.73;2.43;;;5.70;99.90;;;;;;5094524;28;20188;-61
2022/01/20 03:55:58;;;;;;;4.90;2.97;;;5.70;99.90;;;;;;5070250;28;20223;-61
2022/01/20 03:58:24;;;;;;;4.93;3.23;;;5.70;99.90;;;;;;5076300;28;20184;-62
2022/01/20 04:00:50;;;;;;;3.60;2.97;;;5.70;99.90;;;;;;5059865;28;20579;-63
2022/01/20 04:03:17;;;;;;;5.60;3.87;;;5.70;99.90;;;;;;5093211;28;20217;-61
2022/01/20 04:05:59;;;;;;;11.17;4.30;;;5.70;99.90;;;;;;5071075;28;20386;-61
2022/01/20 04:08:26;;;;;;;8.60;3.83;;;5.60;99.90;;;;;;5075411;28;20177;-61
2022/01/20 04:10:51;;;;;;;5.37;3.83;;;5.50;99.90;;;;;;5086114;28;20625;-61
2022/01/20 04:13:18;;;;;;;6.20;4.60;;;5.60;99.90;;;;;;5058662;28;20185;-61
2022/01/20 04:15:44;;;;;;;5.83;3.30;;;5.60;99.90;;;;;;5083168;28;20181;-61
2022/01/20 04:18:13;;;;;;;9.33;3.80;;;5.70;99.90;;;;;;5094247;28;20597;-61
2022/01/20 04:20:39;;;;;;;6.57;4.10;;;5.70;99.90;;;;;;5093802;28;20653;-62
2022/01/20 04:23:05;;;;;;;4.70;3.43;;;5.80;99.90;;;;;;5075145;28;20530;-61
2022/01/20 04:25:31;;;;;;;7.40;5.10;;;5.80;99.90;;;;;;5094011;28;20239;-61
2022/01/20 04:27:56;;;;;;;7.77;3.37;;;5.80;99.90;;;;;;5088181;28;20235;-61
2022/01/20 04:30:22;;;;;;;4.93;3.40;;;5.80;99.90;;;;;;5077193;28;20192;-61
2022/01/20 04:32:47;;;;;;;7.63;3.17;;;5.80;99.90;;;;;;5076408;28;20238;-61
2022/01/20 04:35:16;;;;;;;5.77;3.70;;;5.80;99.90;;;;;;5072890;28;20736;-61
2022/01/20 04:37:42;;;;;;;10.93;3.10;;;5.80;99.90;;;;;;5079661;28;20244;-61
2022/01/20 04:40:08;;;;;;;6.67;3.03;;;5.70;99.90;;;;;;5086899;28;20193;-61
2022/01/20 04:42:37;;;;;;;10.17;3.90;;;5.80;99.90;;;;;;5056906;28;20221;-61
2022/01/20 04:45:07;;;;;;;12.47;3.10;;;5.90;99.90;;;;;;5080472;28;20208;-61
2022/01/20 04:47:46;;;;;;;6.43;3.80;;;5.90;99.90;;;;;;5081530;28;20530;-61
2022/01/20 04:58:24;;;;;;;10.80;3.50;;;6.10;99.90;;;;;;5074341;28;20296;-61
2022/01/20 05:00:50;;;;;;;9.93;3.57;;;6.10;99.90;;;;;;5073749;28;20641;-60
2022/01/20 05:03:16;;;;;;;9.20;2.83;;;6.00;99.90;;;;;;5076099;28;20181;-61
2022/01/20 05:05:42;;;;;;;6.90;2.97;;;6.00;99.90;;;;;;5092244;28;20218;-62
2022/01/20 05:08:07;;;;;;;6.63;2.87;;;5.80;99.90;;;;;;5094478;28;20269;-61
2022/01/20 05:10:34;;;;;;;10.70;3.57;;;5.80;99.90;;;;;;5086696;28;20235;-61
2022/01/20 05:15:27;;;;;;;17.57;5.40;;;5.80;99.90;;;;;;5072298;28;20272;-61
2022/01/20 05:17:54;;;;;;;6.90;3.87;;;5.70;99.90;;;;;;5073313;28;20180;-68
2022/01/20 05:20:19;;;;;;;9.03;3.50;;;5.50;99.90;;;;;;5074404;28;20181;-61
2022/01/20 05:22:46;;;;;;;6.90;4.60;;;5.50;99.90;;;;;;5077574;28;20287;-62
2022/01/20 05:25:11;;;;;;;10.03;3.17;;;5.50;99.90;;;;;;5073669;28;20188;-61
2022/01/20 05:27:37;;;;;;;5.13;3.53;;;5.50;99.90;;;;;;5082619;28;20637;-61
2022/01/20 05:30:04;;;;;;;12.70;4.03;;;5.50;99.90;;;;;;5093309;28;20264;-67
2022/01/20 05:32:30;;;;;;;13.73;4.47;;;5.50;99.90;;;;;;5038366;28;20245;-68
2022/01/20 05:34:55;;;;;;;12.30;4.20;;;5.50;99.90;;;;;;5064256;28;20635;-63
2022/01/20 05:37:21;;;;;;;15.10;4.93;;;5.60;99.90;;;;;;5074820;28;20181;-61
2022/01/20 05:39:47;;;;;;;9.47;5.43;;;5.60;99.90;;;;;;5082722;28;20552;-63
2022/01/20 05:42:12;;;;;;;10.57;4.03;;;5.60;99.90;;;;;;5055799;28;20601;-65
2022/01/20 05:44:38;;;;;;;9.20;3.30;;;5.80;99.90;;;;;;5055723;28;20597;-64
2022/01/20 05:47:09;;;;;;;11.60;4.50;;;5.80;99.90;;;;;;5085765;28;20185;-62
2022/01/20 05:49:35;;;;;;;15.07;4.30;;;5.90;99.90;;;;;;5091682;28;20298;-63
2022/01/20 05:52:01;;;;;;;11.60;2.93;;;5.90;99.90;;;;;;5074620;28;20674;-64
2022/01/20 05:54:27;;;;;;;10.57;4.13;;;5.90;99.90;;;;;;5051846;28;20630;-63
2022/01/20 05:56:53;;;;;;;8.07;2.77;;;5.80;99.90;;;;;;5072573;28;20319;-64
2022/01/20 05:59:19;;;;;;;12.17;2.77;;;5.80;99.90;;;;;;5074164;28;20196;-64
2022/01/20 06:01:51;;;;;;;18.60;2.73;;;5.80;99.90;;;;;;5074533;28;20237;-64
2022/01/20 06:04:17;;;;;;;3.43;2.13;;;5.80;99.90;;;;;;5078969;28;20540;-64
2022/01/20 06:06:44;;;;;;;13.27;3.20;;;5.80;99.90;;;;;;5077159;28;20208;-64
2022/01/20 06:09:10;;;;;;;8.27;3.90;;;5.80;99.90;;;;;;5078030;28;20189;-64
2022/01/20 06:11:37;;;;;;;11.97;4.60;;;5.80;99.90;;;;;;5085816;28;20380;-63
2022/01/20 06:14:04;;;;;;;18.53;2.37;;;5.80;99.90;;;;;;5072907;28;20212;-63
2022/01/20 06:16:30;;;;;;;11.60;2.47;;;5.90;99.90;;;;;;5062821;28;20197;-63
2022/01/20 06:18:56;;;;;;;14.47;2.63;;;5.80;99.90;;;;;;5065731;28;20191;-63
2022/01/20 06:21:22;;;;;;;8.40;2.03;;;5.80;99.90;;;;;;5085258;28;20275;-64
2022/01/20 06:23:49;;;;;;;7.73;2.00;;;5.60;99.90;;;;;;5065406;28;20225;-63
2022/01/20 06:26:15;;;;;;;4.50;2.90;;;5.60;99.90;;;;;;5084499;28;20199;-63
2022/01/20 06:28:40;;;;;;;3.50;1.30;;;5.60;99.90;;;;;;5090968;28;20626;-62
2022/01/20 06:31:06;;;;;;;10.37;2.33;;;5.80;99.90;;;;;;5073292;28;20252;-63
2022/01/20 06:33:32;;;;;;;5.30;1.93;;;5.70;99.90;;;;;;5073836;28;20587;-62
2022/01/20 06:35:59;;;;;;;6.67;1.93;;;5.70;99.90;;;;;;5077322;28;20189;-61
2022/01/20 06:38:25;;;;;;;9.13;1.70;;;5.80;99.90;;;;;;5073130;28;20181;-63
2022/01/20 06:40:51;;;;;;;4.77;1.37;;;5.60;99.90;;;;;;5091545;28;20195;-61
2022/01/20 06:43:17;;;;;;;7.53;1.60;;;5.60;99.90;;;;;;5061367;28;20633;-62
2022/01/20 06:45:42;;;;;;;11.13;1.77;;;5.60;99.90;;;;;;5078381;28;20189;-61
2022/01/20 06:48:08;;;;;;;4.87;1.87;;;5.60;99.90;;;;;;5074339;28;20271;-61
2022/01/20 06:50:34;;;;;;;3.27;2.43;;;5.70;99.90;;;;;;5091764;28;20711;-62
2022/01/20 06:53:00;;;;;;;4.13;2.27;;;5.70;99.90;;;;;;5060662;28;20224;-62
2022/01/20 06:55:26;;;;;;;7.70;2.27;;;5.70;99.90;;;;;;5064779;28;20649;-62
2022/01/20 06:57:51;;;;;;;8.77;3.07;;;5.70;99.90;;;;;;5064190;28;20189;-62
2022/01/20 07:00:21;;;;;;;9.57;2.60;;;5.70;99.90;;;;;;5072248;28;20220;-62
2022/01/20 07:02:47;;;;;;;5.93;2.00;;;5.70;99.90;;;;;;5091584;28;20193;-62
2022/01/20 07:05:16;;;;;;;5.50;1.47;;;5.70;99.90;;;;;;5087662;28;20673;-62
2022/01/20 07:07:42;;;;;;;8.40;2.07;;;5.80;99.90;;;;;;5042548;28;20206;-62
2022/01/20 07:10:10;;;;;;;6.17;2.63;;;5.80;99.90;;;;;;5072619;28;20534;-62
2022/01/20 07:12:36;;;;;;;5.20;2.23;;;5.80;99.90;;;;;;5072835;28;20220;-62
2022/01/20 07:15:02;;;;;;;4.00;2.77;;;5.80;99.90;;;;;;5073706;28;20188;-62
2022/01/20 07:17:28;;;;;;;6.83;3.33;;;5.80;99.90;;;;;;5071654;28;20200;-62
2022/01/20 07:19:53;;;;;;;7.10;1.97;;;6.00;99.90;;;;;;5073825;28;20177;-62
2022/01/20 07:22:19;;;;;;;2.10;1.70;;;6.00;99.90;;;;;;5091957;28;20700;-62
2022/01/20 07:24:47;;;;;;;3.83;1.70;;;5.80;99.90;;;;;;5094855;28;20520;-65
2022/01/20 07:27:13;;;;;;;11.70;1.90;;;5.70;99.90;;;;;;5095885;28;20193;-65
2022/01/20 07:29:39;;;;;;;5.37;1.83;;;5.70;99.90;;;;;;5088954;28;20185;-62
2022/01/20 07:32:06;;;;;;;3.83;1.80;;;5.60;99.90;;;;;;5072544;28;20222;-62
2022/01/20 07:34:33;;;;;;;10.70;2.63;;;5.60;99.90;;;;;;5058790;28;20193;-61
2022/01/20 07:37:00;;;;;;;2.30;1.30;;;5.70;99.90;;;;;;5084307;28;20181;-64
2022/01/20 07:39:25;;;;;;;10.43;2.00;;;5.70;99.90;;;;;;5064828;28;20189;-62
2022/01/20 07:41:51;;;;;;;8.23;2.10;;;5.70;99.90;;;;;;5072877;28;20250;-62
2022/01/20 07:44:17;;;;;;;1.93;1.60;;;5.70;99.90;;;;;;5073153;28;20209;-62
2022/01/20 07:46:43;;;;;;;12.63;4.00;;;5.80;99.90;;;;;;5074216;28;20191;-62
2022/01/20 07:49:09;;;;;;;7.77;2.37;;;6.00;99.90;;;;;;5094380;28;20185;-68
2022/01/20 07:51:35;;;;;;;8.87;2.20;;;6.00;99.90;;;;;;5076468;28;20273;-62
2022/01/20 07:54:01;;;;;;;11.23;2.20;;;6.10;99.90;;;;;;5094946;28;20212;-62
2022/01/20 07:56:26;;;;;;;9.63;2.30;;;6.00;99.90;;;;;;5084820;28;20200;-62
2022/01/20 07:58:52;;;;;;;4.07;2.00;;;6.00;99.90;;;;;;5085385;28;20221;-62
2022/01/20 08:01:20;;;;;;;4.87;2.10;;;5.90;99.90;;;;;;5093970;28;20215;-63
2022/01/20 08:03:46;;;;;;;7.70;2.23;;;6.00;99.90;;;;;;5076877;28;20644;-60
2022/01/20 08:06:12;;;;;;;4.57;2.50;;;6.00;99.90;;;;;;5094688;28;20216;-60
2022/01/20 08:08:37;;;;;;;7.23;2.17;;;5.90;99.90;;;;;;5083500;28;20186;-60
2022/01/20 08:11:03;;;;;;;6.57;2.20;;;5.80;99.90;;;;;;5088060;28;20642;-61
2022/01/20 08:13:29;;;;;;;12.23;3.70;;;5.90;99.90;;;;;;5095320;28;20238;-61
2022/01/20 08:15:55;;;;;;;14.07;4.80;;;5.90;99.90;;;;;;5058327;28;20185;-61
2022/01/20 08:18:20;;;;;;;9.33;3.63;;;5.90;99.90;;;;;;5058120;28;20184;-61
2022/01/20 08:20:46;;;;;;;10.03;3.50;;;6.00;99.90;;;;;;5057191;28;20189;-61
2022/01/20 08:23:12;;;;;;;11.90;3.77;;;6.00;99.90;;;;;;5074783;28;20634;-61
2022/01/20 08:25:38;;;;;;;11.00;3.13;;;6.10;99.90;;;;;;5075865;28;20189;-61
2022/01/20 08:28:04;;;;;;;9.87;2.80;;;6.20;99.90;;;;;;5088848;28;20203;-61
2022/01/20 08:30:30;;;;;;;10.90;2.73;;;6.20;99.90;;;;;;5057061;28;20670;-61
2022/01/20 08:32:56;;;;;;;13.37;3.37;;;6.10;99.90;;;;;;5082142;28;20211;-61
2022/01/20 08:35:23;;;;;;;12.60;3.53;;;6.10;99.90;;;;;;5094415;28;20697;-61
2022/01/20 08:37:49;;;;;;;8.80;2.70;;;5.90;99.90;;;;;;5093663;28;20211;-61
2022/01/20 08:40:18;;;;;;;10.43;3.30;;;5.80;99.90;;;;;;5058905;28;20188;-61
2022/01/20 08:42:46;;;;;;;9.17;2.97;;;5.70;99.90;;;;;;5075895;28;20189;-62
2022/01/20 08:45:14;;;;;;;14.17;3.30;;;5.60;99.90;;;;;;5092894;28;20264;-61
2022/01/20 08:47:42;;;;;;;5.30;2.70;;;5.70;99.90;;;;;;5056099;28;20650;-61
2022/01/20 08:50:10;;;;;;;12.37;5.20;;;5.60;99.90;;;;;;5091719;28;20641;-61
2022/01/20 08:52:36;;;;;;;13.70;3.47;;;5.60;99.90;;;;;;5093658;28;20207;-61
2022/01/20 08:55:03;;;;;;;8.73;4.17;;;5.60;99.90;;;;;;5084883;28;20629;-61
2022/01/20 08:57:29;;;;;;;14.13;3.00;;;5.70;99.90;;;;;;5079568;28;20188;-61
2022/01/20 08:59:55;;;;;;;9.83;2.50;;;5.80;99.90;;;;;;5059004;28;20185;-63
2022/01/20 09:02:21;;;;;;;15.70;3.43;;;6.00;99.90;;;;;;5074866;28;20196;-61
2022/01/20 09:04:47;;;;;;;11.07;4.50;;;6.10;99.90;;;;;;5075256;28;20188;-62
2022/01/20 09:07:13;;;;;;;7.07;2.17;;;6.40;99.90;;;;;;5069515;28;20267;-61
2022/01/20 09:09:42;;;;;;;6.73;2.70;;;6.60;99.90;;;;;;5058741;28;20197;-61
2022/01/20 09:17:24;;;;;;;4.30;1.90;;;7.00;99.90;;;;;;5074040;28;20274;-61
2022/01/20 09:19:50;;;;;;;10.73;2.57;;;7.00;99.90;;;;;;5089925;28;20216;-61
2022/01/20 09:22:16;;;;;;;6.57;3.93;;;6.90;99.90;;;;;;5074526;28;20189;-61
2022/01/20 09:24:44;;;;;;;16.43;3.13;;;7.00;99.90;;;;;;5059691;28;20195;-66
2022/01/20 09:27:10;;;;;;;13.40;4.37;;;6.90;99.90;;;;;;5093153;28;20222;-62
2022/01/20 09:29:36;;;;;;;16.20;3.43;;;7.00;99.90;;;;;;5073841;28;20662;-62
2022/01/20 09:32:05;;;;;;;12.47;3.33;;;6.90;99.90;;;;;;5038863;28;20266;-62
2022/01/20 09:34:30;;;;;;;12.57;3.17;;;6.90;99.90;;;;;;5056004;28;20174;-69
2022/01/20 09:36:57;;;;;;;12.97;3.10;;;7.00;99.90;;;;;;5055828;28;20228;-62
2022/01/20 09:39:22;;;;;;;6.67;2.90;;;7.10;99.90;;;;;;5073983;28;20191;-68
2022/01/20 09:41:48;;;;;;;10.60;3.37;;;7.20;99.90;;;;;;5082548;28;20197;-62
2022/01/20 09:44:14;;;;;;;7.87;3.07;;;7.20;99.90;;;;;;5076344;28;20702;-62
2022/01/20 09:46:41;;;;;;;13.73;3.73;;;7.20;99.90;;;;;;5092884;28;20187;-62
2022/01/20 09:49:09;;;;;;;9.13;3.00;;;7.10;99.90;;;;;;5092668;28;20664;-62
2022/01/20 09:51:35;;;;;;;9.83;2.73;;;7.00;99.90;;;;;;5084065;28;20224;-62
2022/01/20 09:54:00;;;;;;;17.73;4.53;;;7.10;99.90;;;;;;5089014;28;20267;-62
2022/01/20 09:56:26;;;;;;;11.60;3.43;;;7.10;99.90;;;;;;5092820;28;20208;-62
2022/01/20 09:58:52;;;;;;;7.93;3.23;;;7.20;99.90;;;;;;5079755;28;20322;-62
2022/01/20 10:01:40;;;;;;;6.17;2.40;;;7.20;99.90;;;;;;5082072;28;20189;-62
2022/01/20 10:04:17;;;;;;;13.27;4.60;;;7.20;99.90;;;;;;5091348;28;20180;-62
2022/01/20 10:06:55;;;;;;;7.17;3.10;;;7.10;99.90;;;;;;5092682;28;20191;-62
2022/01/20 10:09:37;;;;;;;8.67;3.90;;;7.00;99.90;;;;;;5091562;28;20188;-66
2022/01/20 10:12:05;;;;;;;7.40;2.37;;;6.90;99.90;;;;;;5073295;28;20228;-62
2022/01/20 10:14:46;;;;;;;12.47;2.60;;;7.00;99.90;;;;;;5071621;28;20188;-62
2022/01/20 10:17:16;;;;;;;10.90;3.40;;;7.10;99.90;;;;;;5074304;28;20181;-69
2022/01/20 10:19:41;;;;;;;12.53;2.47;;;7.20;99.90;;;;;;5073232;28;20173;-62
2022/01/20 10:22:21;;;;;;;6.30;2.53;;;7.40;99.90;;;;;;5072723;28;20196;-62
2022/01/20 10:25:04;;;;;;;8.07;3.23;;;7.50;99.90;;;;;;5055543;28;20216;-62
2022/01/20 10:27:31;;;;;;;13.30;5.03;;;7.50;99.90;;;;;;5072846;28;20182;-62
2022/01/20 10:30:09;;;;;;;10.27;2.60;;;7.40;99.90;;;;;;5073222;28;20189;-62
2022/01/20 10:32:46;;;;;;;9.40;3.83;;;7.40;99.90;;;;;;5090626;28;20212;-62
2022/01/20 10:35:15;;;;;;;15.47;2.53;;;7.30;99.90;;;;;;5083873;28;20239;-62
2022/01/20 10:37:52;;;;;;;13.07;3.00;;;7.10;99.90;;;;;;5073095;28;20182;-64
2022/01/20 10:40:21;;;;;;;10.17;3.67;;;6.80;99.90;;;;;;5074841;28;20189;-62
2022/01/20 10:42:48;;;;;;;8.90;3.47;;;6.60;99.90;;;;;;5091658;28;20193;-62
2022/01/20 10:45:25;;;;;;;10.30;3.20;;;6.30;99.90;;;;;;5074064;28;20192;-61
2022/01/20 10:47:59;;;;;;;3.43;2.03;;;6.30;99.90;;;;;;5091492;28;20195;-62
2022/01/20 10:50:29;;;;;;;7.20;3.20;;;6.30;99.90;;;;;;5092183;28;20200;-62
2022/01/20 10:52:54;;;;;;;6.73;3.23;;;6.20;99.90;;;;;;5073861;28;20212;-62
2022/01/20 10:55:28;;;;;;;11.70;3.97;;;6.10;99.90;;;;;;5091730;28;20185;-62
2022/01/20 10:57:55;;;;;;;21.47;5.40;;;6.00;99.90;;;;;;5073317;28;20176;-62
2022/01/20 11:00:25;;;;;;;3.67;2.43;;;6.10;99.90;;;;;;5073967;28;20575;-62
2022/01/20 11:02:54;;;;;;;8.67;3.17;;;6.20;99.90;;;;;;5072776;28;20189;-62
2022/01/20 11:05:21;;;;;;;8.90;2.90;;;6.40;99.90;;;;;;5085123;28;20181;-62
2022/01/20 11:07:48;;;;;;;5.67;2.90;;;6.40;99.90;;;;;;5082622;28;20192;-62
2022/01/20 11:10:14;;;;;;;6.77;2.30;;;6.40;99.90;;;;;;5083134;28;20310;-62
2022/01/20 11:12:41;;;;;;;8.67;2.83;;;6.70;99.90;;;;;;5075872;28;20216;-62
2022/01/20 11:15:10;;;;;;;4.90;2.20;;;6.80;99.90;;;;;;5077705;28;20195;-62
2022/01/20 11:17:40;;;;;;;13.13;2.33;;;6.80;99.90;;;;;;5084162;28;20730;-62
2022/01/20 11:20:08;;;;;;;6.37;2.00;;;7.00;99.90;;;;;;5085564;28;20192;-63
2022/01/20 11:22:34;;;;;;;3.37;1.80;;;7.20;99.90;;;;;;5077540;28;20192;-62
2022/01/20 11:25:06;;;;;;;8.60;2.23;;;7.30;99.90;;;;;;5079248;28;20670;-62
2022/01/20 11:27:40;;;;;;;7.50;1.40;;;7.30;99.90;;;;;;5075790;28;20182;-62
2022/01/20 11:30:26;;;;;;;3.93;1.70;;;7.50;99.90;;;;;;5077265;28;20177;-62
2022/01/20 11:33:04;;;;;;;6.83;1.77;;;7.40;99.90;;;;;;5094149;28;20201;-62
2022/01/20 11:35:46;;;;;;;2.83;1.53;;;7.10;99.90;;;;;;5064153;28;20265;-62
2022/01/20 11:38:14;;;;;;;2.83;1.07;;;6.90;99.90;;;;;;5085205;28;20185;-61
2022/01/20 11:41:00;;;;;;;3.03;1.73;;;6.80;99.90;;;;;;5093366;28;20214;-62
2022/01/20 11:43:32;;;;;;;4.50;1.40;;;6.70;99.90;;;;;;5094800;28;20176;-62
2022/01/20 11:46:16;;;;;;;5.77;1.67;;;6.70;99.90;;;;;;5075858;28;20196;-63
2022/01/20 11:49:03;;;;;;;4.27;1.40;;;6.80;99.90;;;;;;5090881;28;20184;-62
2022/01/20 11:51:43;;;;;;;3.07;1.17;;;6.80;99.90;;;;;;5075794;28;20241;-63
2022/01/20 11:54:11;;;;;;;4.93;1.50;;;6.80;99.90;;;;;;5075550;28;20218;-62
2022/01/20 11:56:40;;;;;;;4.67;1.50;;;6.80;99.90;;;;;;5084650;28;20661;-62
2022/01/20 11:59:10;;;;;;;7.60;1.37;;;6.70;99.90;;;;;;5075448;28;20659;-62
2022/01/20 12:01:53;;;;;;;5.37;1.83;;;6.70;99.90;;;;;;5075860;28;20249;-62
2022/01/20 12:04:33;;;;;;;5.03;1.47;;;6.60;99.90;;;;;;5094361;28;20263;-63
2022/01/20 12:06:59;;;;;;;8.67;1.60;;;6.60;99.90;;;;;;5076695;28;20184;-63
2022/01/20 12:09:43;;;;;;;12.37;1.90;;;6.70;99.90;;;;;;5059494;28;20214;-63
2022/01/20 12:12:26;;;;;;;9.30;2.13;;;7.00;99.90;;;;;;5075882;28;20228;-62
2022/01/20 12:14:52;;;;;;;8.87;2.03;;;7.20;99.90;;;;;;5059247;28;20549;-63
2022/01/20 12:17:19;;;;;;;8.60;2.37;;;7.40;99.90;;;;;;5091307;28;20203;-63
2022/01/20 12:19:54;;;;;;;4.40;2.33;;;7.60;99.90;;;;;;5075469;28;20244;-62
2022/01/20 12:22:20;;;;;;;3.93;1.33;;;7.50;99.90;;;;;;5094109;28;20207;-63
2022/01/20 12:24:54;;;;;;;2.33;1.27;;;7.50;99.90;;;;;;5090500;28;20545;-62
2022/01/20 12:27:22;;;;;;;10.60;1.57;;;7.20;99.90;;;;;;5075056;28;20234;-63
2022/01/20 12:29:48;;;;;;;1.30;1.17;;;7.00;99.90;;;;;;5093633;28;20185;-63
2022/01/20 12:32:19;;;;;;;6.00;2.10;;;6.70;99.90;;;;;;5092730;28;20574;-62
2022/01/20 12:34:59;;;;;;;4.83;1.30;;;6.60;99.90;;;;;;5076477;28;20207;-63
2022/01/20 12:37:39;;;;;;;4.90;1.70;;;6.30;99.90;;;;;;5075469;28;20549;-67
2022/01/20 12:40:07;;;;;;;3.03;1.30;;;6.10;99.90;;;;;;5081435;28;20205;-63
2022/01/20 12:42:38;;;;;;;5.57;2.43;;;6.20;99.90;;;;;;5092666;28;20197;-63
2022/01/20 12:45:55;;;;;;;3.90;1.47;;;6.20;99.90;;;;;;5092484;28;20235;-63
2022/01/20 12:47:50;;;;;;;3.60;1.67;;;6.30;99.90;;;;;;5082401;28;20193;-63
2022/01/20 12:50:16;;;;;;;8.13;1.70;;;6.20;99.90;;;;;;5087053;28;20271;-62
2022/01/20 12:52:51;;;;;;;1.83;1.13;;;6.10;99.90;;;;;;5083479;28;20288;-63
2022/01/20 12:55:17;;;;;;;3.90;1.63;;;6.20;99.90;;;;;;5084647;28;20192;-63
2022/01/20 12:57:44;;;;;;;5.00;1.60;;;6.30;99.90;;;;;;5093449;28;20173;-63
2022/01/20 13:00:11;;;;;;;2.47;1.90;;;6.20;99.90;;;;;;5093474;28;20181;-62
2022/01/20 13:02:36;;;;;;;5.60;1.40;;;6.20;99.90;;;;;;5093848;28;20195;-62
2022/01/20 13:05:05;;;;;;;6.23;1.60;;;6.30;99.90;;;;;;5092689;28;20581;-63
2022/01/20 13:07:34;;;;;;;10.80;2.37;;;6.30;99.90;;;;;;5075389;28;20985;-63
2022/01/20 13:10:21;;;;;;;10.63;2.13;;;6.30;99.90;;;;;;5074781;28;20200;-62
2022/01/20 13:12:47;;;;;;;15.67;2.50;;;6.50;99.90;;;;;;5074150;28;20212;-62
2022/01/20 13:15:26;;;;;;;7.97;1.97;;;6.80;99.90;;;;;;5093100;28;20524;-63
2022/01/20 13:18:06;;;;;;;8.57;1.50;;;7.10;99.90;;;;;;5093108;28;20267;-63
2022/01/20 13:20:32;;;;;;;9.33;2.03;;;7.10;99.90;;;;;;5084930;28;20176;-62
2022/01/20 13:25:48;;;;;;;7.20;1.83;;;7.20;99.90;;;;;;5077601;28;20192;-63
2022/01/20 13:28:16;;;;;;;9.77;1.87;;;7.20;99.90;;;;;;5093229;28;20539;-63
2022/01/20 13:30:50;;;;;;;4.63;1.63;;;7.20;99.90;;;;;;5081261;28;20180;-63
2022/01/20 13:33:16;;;;;;;11.20;1.90;;;7.40;99.90;;;;;;5091763;28;20745;-63
2022/01/20 13:35:44;;;;;;;7.07;1.77;;;7.60;99.90;;;;;;5073290;28;20320;-63
2022/01/20 13:38:10;;;;;;;4.80;2.27;;;7.50;99.90;;;;;;5074298;28;20192;-61
2022/01/20 13:40:38;;;;;;;4.17;1.37;;;7.50;99.90;;;;;;5073847;28;20536;-63
2022/01/20 13:45:45;;;;;;;7.00;1.70;;;7.50;99.90;;;;;;5082621;28;20527;-63
2022/01/20 13:48:13;;;;;;;7.40;1.57;;;7.40;99.90;;;;;;5086008;28;20224;-63
2022/01/20 13:50:44;;;;;;;1.73;1.27;;;7.60;99.90;;;;;;5073770;28;20197;-62
2022/01/20 13:53:22;;;;;;;4.13;1.30;;;7.30;99.90;;;;;;5082553;28;20208;-62
2022/01/20 13:55:48;;;;;;;4.70;1.63;;;7.10;99.90;;;;;;5092466;28;20185;-62
2022/01/20 13:58:25;;;;;;;10.60;1.53;;;7.00;99.90;;;;;;5083867;28;20550;-63
2022/01/20 14:00:53;;;;;;;7.10;1.67;;;7.00;99.90;;;;;;5073364;28;20200;-63
2022/01/20 14:03:19;;;;;;;3.63;1.30;;;7.20;99.90;;;;;;5076421;28;20196;-62
2022/01/20 14:05:45;;;;;;;5.97;2.03;;;7.00;99.90;;;;;;5074799;28;20609;-63